sensor_id;sensor_type;location;lat;lon;timestamp;pressure;altitude;pressure_sealevel;temperature;humidity
75604;BME280;64187;51.010;13.792;2024-02-21T00:02:54;100959.88;;;9.10;68.40
75604;BME280;64187;51.010;13.792;2024-02-21T00:07:59;100949.13;;;9.03;68.29
75604;BME280;64187;51.010;13.792;2024-02-21T00:12:59;100938.09;;;9.04;68.62
75604;BME280;64187;51.010;13.792;2024-02-21T00:17:58;100940.75;;;9.11;68.82
75604;BME280;64187;51.010;13.792;2024-02-21T00:22:57;100934.66;;;9.22;68.11
75604;BME280;64187;51.010;13.792;2024-02-21T00:27:56;100931.34;;;9.20;67.96
75604;BME280;64187;51.010;13.792;2024-02-21T00:32:55;100924.06;;;9.21;68.33
75604;BME280;64187;51.010;13.792;2024-02-21T00:37:54;100923.75;;;9.04;68.88
75604;BME280;64187;51.010;13.792;2024-02-21T00:42:53;100915.19;;;9.14;68.19
75604;BME280;64187;51.010;13.792;2024-02-21T00:47:52;100910.44;;;8.77;69.40
75604;BME280;64187;51.010;13.792;2024-02-21T00:52:51;100900.97;;;8.93;69.38
75604;BME280;64187;51.010;13.792;2024-02-21T00:57:50;100901.81;;;8.94;68.71
75604;BME280;64187;51.010;13.792;2024-02-21T01:02:49;100891.25;;;8.92;68.95
75604;BME280;64187;51.010;13.792;2024-02-21T01:07:51;100889.00;;;8.82;69.06
75604;BME280;64187;51.010;13.792;2024-02-21T01:12:50;100880.53;;;9.04;69.17
75604;BME280;64187;51.010;13.792;2024-02-21T01:17:49;100873.59;;;8.90;69.18
75604;BME280;64187;51.010;13.792;2024-02-21T01:22:53;100866.94;;;8.92;68.90
75604;BME280;64187;51.010;13.792;2024-02-21T01:27:52;100860.66;;;8.98;68.15
75604;BME280;64187;51.010;13.792;2024-02-21T01:32:51;100848.41;;;8.96;68.52
75604;BME280;64187;51.010;13.792;2024-02-21T01:37:50;100838.59;;;9.01;67.22
75604;BME280;64187;51.010;13.792;2024-02-21T01:42:50;100837.09;;;9.12;67.79
75604;BME280;64187;51.010;13.792;2024-02-21T01:47:52;100817.06;;;8.95;67.93
75604;BME280;64187;51.010;13.792;2024-02-21T01:52:51;100821.25;;;9.16;67.99
75604;BME280;64187;51.010;13.792;2024-02-21T01:57:50;100815.00;;;8.97;68.28
75604;BME280;64187;51.010;13.792;2024-02-21T02:02:50;100802.59;;;8.57;69.55
75604;BME280;64187;51.010;13.792;2024-02-21T02:07:49;100795.19;;;8.78;68.90
75604;BME280;64187;51.010;13.792;2024-02-21T02:12:48;100793.13;;;8.73;69.06
75604;BME280;64187;51.010;13.792;2024-02-21T02:17:47;100789.09;;;8.57;70.16
75604;BME280;64187;51.010;13.792;2024-02-21T02:22:47;100797.06;;;8.77;69.40
75604;BME280;64187;51.010;13.792;2024-02-21T02:27:47;100790.25;;;8.68;70.13
75604;BME280;64187;51.010;13.792;2024-02-21T02:32:46;100801.03;;;9.00;68.77
75604;BME280;64187;51.010;13.792;2024-02-21T02:37:49;100793.13;;;8.73;69.64
75604;BME280;64187;51.010;13.792;2024-02-21T02:42:49;100791.09;;;8.69;69.88
75604;BME280;64187;51.010;13.792;2024-02-21T02:47:48;100785.53;;;8.89;69.15
75604;BME280;64187;51.010;13.792;2024-02-21T02:52:47;100782.13;;;9.00;68.30
75604;BME280;64187;51.010;13.792;2024-02-21T02:57:47;100772.19;;;8.94;68.24
75604;BME280;64187;51.010;13.792;2024-02-21T03:02:48;100768.41;;;8.76;70.09
75604;BME280;64187;51.010;13.792;2024-02-21T03:07:48;100764.25;;;8.74;69.61
75604;BME280;64187;51.010;13.792;2024-02-21T03:12:50;100762.84;;;8.71;69.02
75604;BME280;64187;51.010;13.792;2024-02-21T03:17:51;100761.97;;;8.77;69.54
75604;BME280;64187;51.010;13.792;2024-02-21T03:22:50;100762.75;;;8.84;69.39
75604;BME280;64187;51.010;13.792;2024-02-21T03:27:49;100742.34;;;8.89;68.99
75604;BME280;64187;51.010;13.792;2024-02-21T03:32:48;100740.13;;;8.54;69.81
75604;BME280;64187;51.010;13.792;2024-02-21T03:37:47;100753.84;;;8.52;70.02
75604;BME280;64187;51.010;13.792;2024-02-21T03:42:46;100755.38;;;8.67;69.07
75604;BME280;64187;51.010;13.792;2024-02-21T03:47:45;100758.25;;;8.72;69.03
75604;BME280;64187;51.010;13.792;2024-02-21T03:52:44;100754.28;;;8.74;69.82
75604;BME280;64187;51.010;13.792;2024-02-21T03:57:44;100744.34;;;9.00;69.09
75604;BME280;64187;51.010;13.792;2024-02-21T04:02:43;100739.38;;;8.97;69.01
75604;BME280;64187;51.010;13.792;2024-02-21T04:07:41;100736.69;;;8.97;69.36
75604;BME280;64187;51.010;13.792;2024-02-21T04:12:40;100737.94;;;8.37;70.85
75604;BME280;64187;51.010;13.792;2024-02-21T04:17:40;100732.94;;;8.41;71.63
75604;BME280;64187;51.010;13.792;2024-02-21T04:22:39;100720.97;;;8.87;69.95
75604;BME280;64187;51.010;13.792;2024-02-21T04:27:41;100717.53;;;8.98;69.06
75604;BME280;64187;51.010;13.792;2024-02-21T04:32:40;100725.19;;;9.01;69.12
75604;BME280;64187;51.010;13.792;2024-02-21T04:37:39;100716.88;;;9.03;68.84
75604;BME280;64187;51.010;13.792;2024-02-21T04:42:38;100718.41;;;9.17;66.60
75604;BME280;64187;51.010;13.792;2024-02-21T04:47:37;100721.41;;;9.27;68.92
75604;BME280;64187;51.010;13.792;2024-02-21T04:52:36;100721.03;;;9.24;66.42
75604;BME280;64187;51.010;13.792;2024-02-21T04:57:35;100724.72;;;9.30;68.80
75604;BME280;64187;51.010;13.792;2024-02-21T05:02:34;100719.75;;;9.26;67.57
75604;BME280;64187;51.010;13.792;2024-02-21T05:07:34;100712.69;;;9.07;67.24
75604;BME280;64187;51.010;13.792;2024-02-21T05:12:33;100708.78;;;9.21;68.67
75604;BME280;64187;51.010;13.792;2024-02-21T05:17:33;100699.91;;;8.96;67.73
75604;BME280;64187;51.010;13.792;2024-02-21T05:22:32;100701.28;;;9.05;69.04
75604;BME280;64187;51.010;13.792;2024-02-21T05:27:31;100691.91;;;9.26;66.81
75604;BME280;64187;51.010;13.792;2024-02-21T05:32:30;100694.25;;;9.41;66.25
75604;BME280;64187;51.010;13.792;2024-02-21T05:37:29;100693.50;;;9.34;68.01
75604;BME280;64187;51.010;13.792;2024-02-21T05:42:28;100690.41;;;11.80;74.48
75604;BME280;64187;51.010;13.792;2024-02-21T05:47:27;100683.09;;;13.11;64.58
75604;BME280;64187;51.010;13.792;2024-02-21T05:52:26;100680.72;;;13.53;61.67
75604;BME280;64187;51.010;13.792;2024-02-21T05:57:25;100679.13;;;13.79;59.59
75604;BME280;64187;51.010;13.792;2024-02-21T06:02:23;100667.75;;;13.61;60.47
75604;BME280;64187;51.010;13.792;2024-02-21T06:07:22;100668.03;;;13.86;59.30
75604;BME280;64187;51.010;13.792;2024-02-21T06:12:27;100657.22;;;13.91;59.42
75604;BME280;64187;51.010;13.792;2024-02-21T06:17:36;100652.88;;;13.24;60.51
75604;BME280;64187;51.010;13.792;2024-02-21T06:22:39;100648.41;;;13.18;56.73
75604;BME280;64187;51.010;13.792;2024-02-21T06:27:38;100640.97;;;10.74;61.55
75604;BME280;64187;51.010;13.792;2024-02-21T06:32:37;100636.16;;;10.22;63.79
75604;BME280;64187;51.010;13.792;2024-02-21T06:37:36;100631.72;;;9.56;66.73
75604;BME280;64187;51.010;13.792;2024-02-21T06:42:37;100632.03;;;9.78;66.33
75604;BME280;64187;51.010;13.792;2024-02-21T06:47:37;100629.97;;;9.61;67.32
75604;BME280;64187;51.010;13.792;2024-02-21T06:52:36;100632.50;;;9.08;69.03
75604;BME280;64187;51.010;13.792;2024-02-21T06:57:35;100629.88;;;9.19;68.99
75604;BME280;64187;51.010;13.792;2024-02-21T07:02:35;100632.88;;;9.11;68.95
75604;BME280;64187;51.010;13.792;2024-02-21T07:07:34;100648.56;;;9.21;69.00
75604;BME280;64187;51.010;13.792;2024-02-21T07:12:34;100645.16;;;9.44;68.42
75604;BME280;64187;51.010;13.792;2024-02-21T07:17:34;100630.44;;;9.58;67.91
75604;BME280;64187;51.010;13.792;2024-02-21T07:22:33;100631.09;;;9.54;67.43
75604;BME280;64187;51.010;13.792;2024-02-21T07:27:32;100643.41;;;9.68;68.24
75604;BME280;64187;51.010;13.792;2024-02-21T07:32:34;100641.84;;;9.60;67.31
75604;BME280;64187;51.010;13.792;2024-02-21T07:37:34;100653.97;;;9.39;68.05
75604;BME280;64187;51.010;13.792;2024-02-21T07:42:33;100655.31;;;9.79;66.59
75604;BME280;64187;51.010;13.792;2024-02-21T07:47:32;100657.13;;;9.85;67.10
75604;BME280;64187;51.010;13.792;2024-02-21T07:52:32;100637.81;;;10.11;66.49
75604;BME280;64187;51.010;13.792;2024-02-21T07:57:31;100632.09;;;9.89;66.13
75604;BME280;64187;51.010;13.792;2024-02-21T08:02:30;100630.59;;;10.05;66.26
75604;BME280;64187;51.010;13.792;2024-02-21T08:07:30;100629.09;;;10.09;65.54
75604;BME280;64187;51.010;13.792;2024-02-21T08:12:30;100622.22;;;9.95;65.50
75604;BME280;64187;51.010;13.792;2024-02-21T08:17:30;100625.94;;;9.52;66.62
75604;BME280;64187;51.010;13.792;2024-02-21T08:22:29;100622.19;;;9.83;66.14
75604;BME280;64187;51.010;13.792;2024-02-21T08:27:29;100635.09;;;10.11;65.24
75604;BME280;64187;51.010;13.792;2024-02-21T08:32:29;100636.31;;;9.85;65.94
75604;BME280;64187;51.010;13.792;2024-02-21T08:37:28;100630.47;;;10.00;65.76
75604;BME280;64187;51.010;13.792;2024-02-21T08:42:27;100616.47;;;10.45;64.27
75604;BME280;64187;51.010;13.792;2024-02-21T08:47:30;100617.19;;;10.52;64.81
75604;BME280;64187;51.010;13.792;2024-02-21T08:52:30;100624.19;;;9.88;65.94
75604;BME280;64187;51.010;13.792;2024-02-21T08:57:29;100616.41;;;10.22;65.34
75604;BME280;64187;51.010;13.792;2024-02-21T09:02:40;100611.41;;;9.95;64.78
75604;BME280;64187;51.010;13.792;2024-02-21T09:07:41;100601.25;;;9.79;65.24
75604;BME280;64187;51.010;13.792;2024-02-21T09:12:40;100605.13;;;9.83;65.65
75604;BME280;64187;51.010;13.792;2024-02-21T09:17:39;100610.50;;;9.71;66.09
75604;BME280;64187;51.010;13.792;2024-02-21T09:22:38;100609.94;;;9.81;65.95
75604;BME280;64187;51.010;13.792;2024-02-21T09:27:39;100600.03;;;9.63;65.89
75604;BME280;64187;51.010;13.792;2024-02-21T09:32:38;100612.34;;;9.89;66.30
75604;BME280;64187;51.010;13.792;2024-02-21T09:37:38;100627.28;;;10.03;65.05
75604;BME280;64187;51.010;13.792;2024-02-21T09:42:39;100617.09;;;9.75;66.48
75604;BME280;64187;51.010;13.792;2024-02-21T09:52:51;100625.72;;;9.84;66.38
75604;BME280;64187;51.010;13.792;2024-02-21T09:57:52;100623.72;;;9.79;66.07
75604;BME280;64187;51.010;13.792;2024-02-21T10:02:52;100620.53;;;9.52;66.88
75604;BME280;64187;51.010;13.792;2024-02-21T10:07:51;100613.19;;;9.59;66.88
75604;BME280;64187;51.010;13.792;2024-02-21T10:12:51;100609.19;;;9.62;67.08
75604;BME280;64187;51.010;13.792;2024-02-21T10:18:01;100603.47;;;9.70;66.71
75604;BME280;64187;51.010;13.792;2024-02-21T10:23:04;100607.66;;;9.66;67.07
75604;BME280;64187;51.010;13.792;2024-02-21T10:28:08;100602.31;;;9.78;66.53
75604;BME280;64187;51.010;13.792;2024-02-21T10:33:06;100603.53;;;9.63;66.50
75604;BME280;64187;51.010;13.792;2024-02-21T10:38:06;100597.19;;;9.58;66.83
75604;BME280;64187;51.010;13.792;2024-02-21T10:43:05;100605.09;;;9.71;66.48
75604;BME280;64187;51.010;13.792;2024-02-21T10:48:12;100592.28;;;9.66;65.93
75604;BME280;64187;51.010;13.792;2024-02-21T10:53:24;100583.47;;;9.71;65.41
75604;BME280;64187;51.010;13.792;2024-02-21T10:58:28;100590.16;;;9.68;65.60
75604;BME280;64187;51.010;13.792;2024-02-21T11:03:29;100580.53;;;9.73;66.00
75604;BME280;64187;51.010;13.792;2024-02-21T11:08:29;100566.09;;;9.67;66.45
75604;BME280;64187;51.010;13.792;2024-02-21T11:13:32;100561.56;;;9.61;66.45
75604;BME280;64187;51.010;13.792;2024-02-21T11:18:33;100566.44;;;9.70;66.42
75604;BME280;64187;51.010;13.792;2024-02-21T11:23:32;100557.69;;;9.99;66.04
75604;BME280;64187;51.010;13.792;2024-02-21T11:28:32;100546.16;;;10.03;65.30
75604;BME280;64187;51.010;13.792;2024-02-21T11:33:33;100526.59;;;9.78;66.45
75604;BME280;64187;51.010;13.792;2024-02-21T11:38:34;100513.00;;;10.08;66.03
75604;BME280;64187;51.010;13.792;2024-02-21T11:43:32;100500.41;;;10.13;65.91
75604;BME280;64187;51.010;13.792;2024-02-21T11:48:32;100506.31;;;10.10;65.49
75604;BME280;64187;51.010;13.792;2024-02-21T11:53:31;100489.59;;;10.13;65.66
75604;BME280;64187;51.010;13.792;2024-02-21T11:58:33;100483.97;;;9.91;66.68
75604;BME280;64187;51.010;13.792;2024-02-21T12:03:33;100475.97;;;10.08;66.72
75604;BME280;64187;51.010;13.792;2024-02-21T12:08:42;100461.59;;;10.55;64.64
75604;BME280;64187;51.010;13.792;2024-02-21T12:13:41;100448.38;;;11.11;62.90
75604;BME280;64187;51.010;13.792;2024-02-21T12:18:40;100419.34;;;10.94;63.55
75604;BME280;64187;51.010;13.792;2024-02-21T12:23:40;100423.25;;;10.87;63.23
75604;BME280;64187;51.010;13.792;2024-02-21T12:28:39;100410.66;;;10.81;63.23
75604;BME280;64187;51.010;13.792;2024-02-21T12:33:39;100397.03;;;11.04;63.01
75604;BME280;64187;51.010;13.792;2024-02-21T12:38:38;100382.78;;;11.42;62.26
75604;BME280;64187;51.010;13.792;2024-02-21T12:43:37;100372.13;;;11.53;60.97
75604;BME280;64187;51.010;13.792;2024-02-21T12:48:37;100363.56;;;11.61;60.15
75604;BME280;64187;51.010;13.792;2024-02-21T12:53:36;100349.59;;;11.52;61.43
75604;BME280;64187;51.010;13.792;2024-02-21T12:58:35;100351.59;;;11.79;59.96
75604;BME280;64187;51.010;13.792;2024-02-21T13:03:34;100332.63;;;12.40;57.86
75604;BME280;64187;51.010;13.792;2024-02-21T13:08:33;100323.34;;;12.36;58.38
75604;BME280;64187;51.010;13.792;2024-02-21T13:13:33;100315.81;;;12.43;58.53
75604;BME280;64187;51.010;13.792;2024-02-21T13:18:35;100303.00;;;12.38;58.52
75604;BME280;64187;51.010;13.792;2024-02-21T13:23:34;100293.88;;;12.49;58.09
75604;BME280;64187;51.010;13.792;2024-02-21T13:28:33;100298.25;;;12.50;57.14
75604;BME280;64187;51.010;13.792;2024-02-21T13:33:32;100288.69;;;12.43;58.33
75604;BME280;64187;51.010;13.792;2024-02-21T13:38:31;100270.00;;;12.24;58.32
75604;BME280;64187;51.010;13.792;2024-02-21T13:43:30;100258.72;;;12.11;58.72
75604;BME280;64187;51.010;13.792;2024-02-21T13:48:29;100246.16;;;12.26;58.84
75604;BME280;64187;51.010;13.792;2024-02-21T13:53:29;100243.44;;;12.26;58.85
75604;BME280;64187;51.010;13.792;2024-02-21T13:58:28;100233.38;;;12.27;58.30
75604;BME280;64187;51.010;13.792;2024-02-21T14:03:27;100215.91;;;12.13;59.44
75604;BME280;64187;51.010;13.792;2024-02-21T14:08:26;100206.41;;;11.88;60.57
75604;BME280;64187;51.010;13.792;2024-02-21T14:13:25;100206.75;;;11.97;59.96
75604;BME280;64187;51.010;13.792;2024-02-21T14:18:24;100197.50;;;12.20;59.30
75604;BME280;64187;51.010;13.792;2024-02-21T14:23:23;100191.50;;;11.91;59.67
75604;BME280;64187;51.010;13.792;2024-02-21T14:28:22;100179.78;;;12.12;60.43
75604;BME280;64187;51.010;13.792;2024-02-21T14:33:21;100180.81;;;12.06;60.57
75604;BME280;64187;51.010;13.792;2024-02-21T14:38:20;100177.09;;;12.17;60.02
75604;BME280;64187;51.010;13.792;2024-02-21T14:43:19;100171.53;;;12.29;59.50
75604;BME280;64187;51.010;13.792;2024-02-21T14:48:20;100169.44;;;12.09;60.64
75604;BME280;64187;51.010;13.792;2024-02-21T14:53:20;100156.00;;;12.24;59.33
75604;BME280;64187;51.010;13.792;2024-02-21T14:58:19;100156.09;;;12.02;59.99
75604;BME280;64187;51.010;13.792;2024-02-21T15:03:18;100153.06;;;11.99;60.90
75604;BME280;64187;51.010;13.792;2024-02-21T15:08:20;100154.19;;;12.03;60.73
75604;BME280;64187;51.010;13.792;2024-02-21T15:13:19;100148.25;;;12.06;60.47
75604;BME280;64187;51.010;13.792;2024-02-21T15:18:18;100141.41;;;11.76;61.68
75604;BME280;64187;51.010;13.792;2024-02-21T15:23:17;100136.16;;;11.92;61.77
75604;BME280;64187;51.010;13.792;2024-02-21T15:28:16;100135.16;;;11.76;62.61
75604;BME280;64187;51.010;13.792;2024-02-21T15:33:15;100123.22;;;11.77;62.59
75604;BME280;64187;51.010;13.792;2024-02-21T15:38:14;100112.53;;;11.65;63.48
75604;BME280;64187;51.010;13.792;2024-02-21T15:43:13;100108.59;;;11.29;64.12
75604;BME280;64187;51.010;13.792;2024-02-21T15:48:12;100094.66;;;11.42;64.47
75604;BME280;64187;51.010;13.792;2024-02-21T15:53:12;100080.69;;;11.28;64.62
75604;BME280;64187;51.010;13.792;2024-02-21T15:58:11;100067.38;;;10.83;65.66
75604;BME280;64187;51.010;13.792;2024-02-21T16:03:11;100057.78;;;10.75;66.85
75604;BME280;64187;51.010;13.792;2024-02-21T16:08:12;100052.31;;;10.70;66.88
75604;BME280;64187;51.010;13.792;2024-02-21T16:13:11;100036.63;;;10.72;66.46
75604;BME280;64187;51.010;13.792;2024-02-21T16:18:10;100028.44;;;10.67;66.81
75604;BME280;64187;51.010;13.792;2024-02-21T16:23:09;100018.13;;;10.64;66.78
75604;BME280;64187;51.010;13.792;2024-02-21T16:28:09;100009.88;;;10.53;67.48
75604;BME280;64187;51.010;13.792;2024-02-21T16:33:08;99997.91;;;10.49;67.76
75604;BME280;64187;51.010;13.792;2024-02-21T16:38:08;100000.97;;;10.36;68.35
75604;BME280;64187;51.010;13.792;2024-02-21T16:43:11;99998.06;;;10.26;68.76
75604;BME280;64187;51.010;13.792;2024-02-21T16:48:10;99991.78;;;10.03;69.49
75604;BME280;64187;51.010;13.792;2024-02-21T16:53:09;99992.63;;;10.04;69.50
75604;BME280;64187;51.010;13.792;2024-02-21T16:58:08;99983.25;;;9.95;69.92
75604;BME280;64187;51.010;13.792;2024-02-21T17:03:08;99989.81;;;9.82;70.48
75604;BME280;64187;51.010;13.792;2024-02-21T17:08:07;99975.56;;;9.86;71.10
75604;BME280;64187;51.010;13.792;2024-02-21T17:13:08;99963.19;;;9.74;72.10
75604;BME280;64187;51.010;13.792;2024-02-21T17:18:07;99961.94;;;9.47;71.93
75604;BME280;64187;51.010;13.792;2024-02-21T17:23:06;99941.06;;;9.43;72.95
75604;BME280;64187;51.010;13.792;2024-02-21T17:28:06;99941.69;;;9.33;73.39
75604;BME280;64187;51.010;13.792;2024-02-21T17:33:05;99938.16;;;9.16;73.80
75604;BME280;64187;51.010;13.792;2024-02-21T17:38:07;99942.41;;;8.83;75.66
75604;BME280;64187;51.010;13.792;2024-02-21T17:43:08;99949.59;;;8.77;76.04
75604;BME280;64187;51.010;13.792;2024-02-21T17:48:08;99932.44;;;8.72;75.89
75604;BME280;64187;51.010;13.792;2024-02-21T17:53:07;99921.13;;;8.58;76.15
75604;BME280;64187;51.010;13.792;2024-02-21T17:58:06;99923.25;;;8.56;76.50
75604;BME280;64187;51.010;13.792;2024-02-21T18:03:06;99931.94;;;8.46;76.59
75604;BME280;64187;51.010;13.792;2024-02-21T18:08:08;99914.16;;;7.86;78.86
75604;BME280;64187;51.010;13.792;2024-02-21T18:13:08;99892.59;;;7.86;78.21
75604;BME280;64187;51.010;13.792;2024-02-21T18:18:08;99898.59;;;8.00;77.47
75604;BME280;64187;51.010;13.792;2024-02-21T18:23:07;99892.13;;;8.13;77.00
75604;BME280;64187;51.010;13.792;2024-02-21T18:28:07;99887.44;;;7.96;78.24
75604;BME280;64187;51.010;13.792;2024-02-21T18:33:06;99872.69;;;7.87;78.75
75604;BME280;64187;51.010;13.792;2024-02-21T18:38:05;99868.44;;;8.15;78.61
75604;BME280;64187;51.010;13.792;2024-02-21T18:43:04;99864.69;;;8.04;78.96
75604;BME280;64187;51.010;13.792;2024-02-21T18:48:03;99848.38;;;8.23;78.83
75604;BME280;64187;51.010;13.792;2024-02-21T18:53:02;99843.31;;;8.26;78.08
75604;BME280;64187;51.010;13.792;2024-02-21T18:58:02;99835.19;;;8.38;76.75
75604;BME280;64187;51.010;13.792;2024-02-21T19:03:01;99835.44;;;8.36;75.96
75604;BME280;64187;51.010;13.792;2024-02-21T19:08:00;99828.50;;;8.52;75.49
75604;BME280;64187;51.010;13.792;2024-02-21T19:12:59;99816.31;;;8.50;75.88
75604;BME280;64187;51.010;13.792;2024-02-21T19:17:58;99816.06;;;8.51;74.95
75604;BME280;64187;51.010;13.792;2024-02-21T19:22:57;99808.22;;;8.38;74.26
75604;BME280;64187;51.010;13.792;2024-02-21T19:27:56;99796.69;;;8.54;73.54
75604;BME280;64187;51.010;13.792;2024-02-21T19:32:56;99782.78;;;8.46;73.47
75604;BME280;64187;51.010;13.792;2024-02-21T19:37:58;99767.63;;;8.45;74.16
75604;BME280;64187;51.010;13.792;2024-02-21T19:43:02;99751.69;;;8.14;75.70
75604;BME280;64187;51.010;13.792;2024-02-21T19:48:01;99737.16;;;8.15;72.95
75604;BME280;64187;51.010;13.792;2024-02-21T19:53:00;99729.41;;;8.19;72.73
75604;BME280;64187;51.010;13.792;2024-02-21T19:58:00;99704.25;;;8.59;70.02
75604;BME280;64187;51.010;13.792;2024-02-21T20:02:59;99686.81;;;8.67;69.04
75604;BME280;64187;51.010;13.792;2024-02-21T20:07:59;99691.91;;;8.63;68.65
75604;BME280;64187;51.010;13.792;2024-02-21T20:12:59;99683.09;;;8.68;68.97
75604;BME280;64187;51.010;13.792;2024-02-21T20:17:58;99682.00;;;8.86;67.62
75604;BME280;64187;51.010;13.792;2024-02-21T20:22:58;99669.47;;;8.96;67.29
75604;BME280;64187;51.010;13.792;2024-02-21T20:27:57;99661.00;;;8.88;68.08
75604;BME280;64187;51.010;13.792;2024-02-21T20:32:56;99662.28;;;9.02;67.73
75604;BME280;64187;51.010;13.792;2024-02-21T20:37:55;99663.28;;;8.62;69.14
75604;BME280;64187;51.010;13.792;2024-02-21T20:42:54;99675.16;;;8.78;69.03
75604;BME280;64187;51.010;13.792;2024-02-21T20:47:53;99658.19;;;8.99;69.83
75604;BME280;64187;51.010;13.792;2024-02-21T20:52:52;99652.53;;;9.01;68.99
75604;BME280;64187;51.010;13.792;2024-02-21T20:57:51;99653.47;;;8.90;69.69
75604;BME280;64187;51.010;13.792;2024-02-21T21:02:50;99652.06;;;9.48;80.60
75604;BME280;64187;51.010;13.792;2024-02-21T21:07:50;99640.06;;;9.39;66.22
75604;BME280;64187;51.010;13.792;2024-02-21T21:12:48;99639.38;;;9.26;65.27
75604;BME280;64187;51.010;13.792;2024-02-21T21:17:48;99630.22;;;9.27;65.98
75604;BME280;64187;51.010;13.792;2024-02-21T21:22:47;99621.31;;;9.27;64.69
75604;BME280;64187;51.010;13.792;2024-02-21T21:27:46;99614.59;;;9.30;64.18
75604;BME280;64187;51.010;13.792;2024-02-21T21:32:45;99601.44;;;9.38;64.39
75604;BME280;64187;51.010;13.792;2024-02-21T21:37:44;99577.97;;;9.17;64.46
75604;BME280;64187;51.010;13.792;2024-02-21T21:42:45;99573.38;;;9.39;63.50
75604;BME280;64187;51.010;13.792;2024-02-21T21:47:44;99572.53;;;9.39;64.03
75604;BME280;64187;51.010;13.792;2024-02-21T21:52:43;99579.16;;;9.26;64.34
75604;BME280;64187;51.010;13.792;2024-02-21T21:57:44;99580.69;;;9.17;65.70
75604;BME280;64187;51.010;13.792;2024-02-21T22:02:44;99571.31;;;9.24;67.08
75604;BME280;64187;51.010;13.792;2024-02-21T22:07:46;99576.84;;;9.13;66.55
75604;BME280;64187;51.010;13.792;2024-02-21T22:12:46;99564.19;;;9.18;66.60
75604;BME280;64187;51.010;13.792;2024-02-21T22:17:45;99560.50;;;9.24;65.20
75604;BME280;64187;51.010;13.792;2024-02-21T22:22:44;99551.50;;;9.41;64.00
75604;BME280;64187;51.010;13.792;2024-02-21T22:27:43;99559.09;;;9.44;63.42
75604;BME280;64187;51.010;13.792;2024-02-21T22:32:42;99550.56;;;9.30;65.01
75604;BME280;64187;51.010;13.792;2024-02-21T22:37:41;99551.09;;;9.27;65.65
75604;BME280;64187;51.010;13.792;2024-02-21T22:42:41;99547.69;;;9.37;64.10
75604;BME280;64187;51.010;13.792;2024-02-21T22:47:41;99536.31;;;9.35;63.84
75604;BME280;64187;51.010;13.792;2024-02-21T22:52:40;99532.88;;;9.39;63.73
75604;BME280;64187;51.010;13.792;2024-02-21T22:57:39;99520.22;;;9.45;62.68
75604;BME280;64187;51.010;13.792;2024-02-21T23:02:42;99515.09;;;9.48;62.83
75604;BME280;64187;51.010;13.792;2024-02-21T23:07:43;99504.19;;;9.65;61.08
75604;BME280;64187;51.010;13.792;2024-02-21T23:12:42;99499.50;;;9.56;61.23
75604;BME280;64187;51.010;13.792;2024-02-21T23:17:42;99491.78;;;9.64;60.06
75604;BME280;64187;51.010;13.792;2024-02-21T23:22:41;99478.81;;;9.99;57.78
75604;BME280;64187;51.010;13.792;2024-02-21T23:27:41;99474.13;;;10.26;52.01
75604;BME280;64187;51.010;13.792;2024-02-21T23:32:40;99469.34;;;10.33;48.64
75604;BME280;64187;51.010;13.792;2024-02-21T23:37:39;99460.75;;;10.47;48.23
75604;BME280;64187;51.010;13.792;2024-02-21T23:42:38;99464.91;;;10.70;47.39
75604;BME280;64187;51.010;13.792;2024-02-21T23:47:38;99447.09;;;10.79;48.79
75604;BME280;64187;51.010;13.792;2024-02-21T23:52:37;99431.16;;;10.98;48.60
75604;BME280;64187;51.010;13.792;2024-02-21T23:57:36;99434.41;;;10.95;48.86
